Terminal Aerodrome Forecast
Issued by NWS

Home | Current Version | Previous Version | Text Only | Print | Product List | Glossary On
Versions: 1 2 3 4 5 6 7 8 9 10 11 12 13 14 15 16 17 18 19
000
FTUS42 KFFC 271121
TAFPDK
TAF
KPDK 271121Z 2712/2812 19009KT P6SM VCSH BKN015
     FM271400 17012G20KT 6SM -SHRA BR SCT012 BKN025
      TEMPO 2715/2717 VRB15G25KT 4SM -TSRA BR BKN012CB
     FM271700 21013G24KT 6SM -RA BR BKN025
     FM272000 24012KT P6SM SCT050 BKN100
     FM272300 26008KT P6SM SCT200
     FM280200 25003KT P6SM FEW250
     FM281000 16003KT 6SM BR BKN008=

USA.gov is the U.S. government's official web portal to all federal, state and local government web resources and services.